Time;durP1;ratioP1;P1;durP2;ratioP2;P2;SDS_P1;SDS_P2;PMS_P1;PMS_P2;Temp;Humidity;BMP_temperature;BMP_pressure;BME280_temperature;BME280_humidity;BME280_pressure;Samples;Min_cycle;Max_cycle;Signal;HPM_P1;HPM_P2
2022/11/26 13:36:35;;;;;;;54.03;26.40;;;8.90;99.90;;;;;;5106786;27;20311;-56
2022/11/26 13:39:10;;;;;;;55.95;26.17;;;8.90;99.90;;;;;;5107382;28;20500;-53
2022/11/26 13:41:46;;;;;;;47.33;23.05;;;8.80;99.90;;;;;;5107325;28;20511;-54
2022/11/26 13:44:20;;;;;;;48.70;21.98;;;8.80;99.90;;;;;;5106453;28;20054;-57
2022/11/26 13:46:53;;;;;;;46.38;23.45;;;8.80;99.90;;;;;;5107394;28;20036;-57
2022/11/26 13:49:34;;;;;;;43.50;22.10;;;8.80;99.90;;;;;;5107545;28;20051;-55
2022/11/26 13:52:17;;;;;;;45.55;21.88;;;8.80;99.90;;;;;;5074391;28;20044;-55
2022/11/26 13:54:58;;;;;;;45.47;20.10;;;8.70;99.90;;;;;;5065162;28;20505;-54
2022/11/26 13:57:30;;;;;;;46.13;18.63;;;8.70;99.90;;;;;;5067730;28;20042;-57
2022/11/26 13:59:57;;;;;;;39.75;17.90;;;8.70;99.90;;;;;;5070403;28;20041;-53
2022/11/26 14:02:31;;;;;;;46.25;17.67;;;8.70;99.90;;;;;;5080723;28;20063;-56
2022/11/26 14:04:57;;;;;;;40.53;16.25;;;8.60;99.90;;;;;;5085423;28;20524;-55
2022/11/26 14:07:23;;;;;;;42.00;18.30;;;8.60;99.90;;;;;;5086617;28;20040;-55
2022/11/26 14:09:52;;;;;;;40.08;17.88;;;8.70;99.90;;;;;;5082894;28;20068;-58
2022/11/26 14:12:19;;;;;;;34.63;17.83;;;8.60;99.90;;;;;;5066519;28;20037;-55
2022/11/26 14:14:47;;;;;;;34.53;16.55;;;8.60;99.90;;;;;;5065162;28;20041;-56
2022/11/26 14:17:20;;;;;;;41.08;18.10;;;8.60;99.90;;;;;;5066249;28;20044;-57
2022/11/26 14:19:55;;;;;;;37.22;16.50;;;8.60;99.90;;;;;;5064776;28;20044;-53
2022/11/26 14:22:21;;;;;;;37.70;17.63;;;8.60;99.90;;;;;;5067185;28;20056;-59
2022/11/26 14:24:49;;;;;;;44.03;16.77;;;8.50;99.90;;;;;;5064726;28;20126;-54
2022/11/26 14:27:31;;;;;;;35.42;16.30;;;8.50;99.90;;;;;;5065935;28;20166;-56
2022/11/26 14:30:05;;;;;;;31.00;16.83;;;8.60;99.90;;;;;;5065854;28;20048;-54
2022/11/26 14:32:39;;;;;;;37.45;16.55;;;8.50;99.90;;;;;;5077563;28;20069;-51
2022/11/26 14:35:17;;;;;;;32.35;16.15;;;8.50;99.90;;;;;;5084429;28;20074;-53
2022/11/26 14:37:50;;;;;;;33.28;16.65;;;8.50;99.90;;;;;;5085944;28;20060;-56
2022/11/26 14:40:30;;;;;;;33.70;15.77;;;8.50;99.90;;;;;;5070494;28;20036;-57
2022/11/26 14:43:05;;;;;;;35.45;17.05;;;8.50;99.90;;;;;;5074251;28;20048;-57
2022/11/26 14:45:31;;;;;;;41.58;17.27;;;8.50;99.90;;;;;;5060710;28;20410;-53
2022/11/26 14:47:56;;;;;;;33.40;15.80;;;8.50;99.90;;;;;;5052249;28;20041;-55
2022/11/26 14:50:23;;;;;;;32.67;15.73;;;8.50;99.90;;;;;;5052256;28;20072;-55
2022/11/26 14:52:57;;;;;;;38.55;16.88;;;8.50;99.90;;;;;;5058395;28;20580;-56
2022/11/26 14:55:27;;;;;;;42.40;18.52;;;8.50;99.90;;;;;;5072110;28;20087;-56
2022/11/26 14:58:04;;;;;;;39.83;16.88;;;8.50;99.90;;;;;;5070520;28;20044;-57
2022/11/26 15:00:31;;;;;;;32.65;15.48;;;8.50;99.90;;;;;;5072211;28;20086;-56
2022/11/26 15:02:58;;;;;;;41.05;16.17;;;8.50;99.90;;;;;;5066425;28;20047;-59
2022/11/26 15:05:25;;;;;;;;;;;8.50;99.90;;;;;;5052405;28;20084;-56
2022/11/26 15:07:58;;;;;;;33.42;14.40;;;8.50;99.90;;;;;;5059903;28;19939;-53
2022/11/26 15:10:25;;;;;;;32.17;15.82;;;8.50;99.90;;;;;;5071861;28;20052;-57
2022/11/26 15:12:52;;;;;;;37.00;15.60;;;8.50;99.90;;;;;;5071590;28;20048;-59
2022/11/26 15:15:23;;;;;;;44.80;16.83;;;8.50;99.90;;;;;;5075646;28;20040;-55
2022/11/26 15:18:13;;;;;;;43.40;16.20;;;8.50;99.90;;;;;;5081913;28;20127;-58
2022/11/26 15:20:39;;;;;;;48.33;15.45;;;8.50;99.90;;;;;;5069459;28;20041;-58
2022/11/26 15:23:10;;;;;;;36.20;15.98;;;8.50;99.90;;;;;;5070858;28;20063;-56
2022/11/26 15:25:37;;;;;;;38.20;14.52;;;8.40;99.90;;;;;;5054733;28;20055;-57
2022/11/26 15:28:17;;;;;;;32.45;14.63;;;8.50;99.90;;;;;;5051544;28;20051;-55
2022/11/26 15:30:55;;;;;;;33.00;14.40;;;8.50;99.90;;;;;;5051642;28;20045;-55
2022/11/26 15:33:21;;;;;;;28.63;14.55;;;8.40;99.90;;;;;;5068100;28;20048;-56
2022/11/26 15:35:55;;;;;;;44.25;14.93;;;8.40;99.90;;;;;;5068201;28;20059;-53
2022/11/26 15:38:21;;;;;;;37.42;14.98;;;8.40;99.90;;;;;;5070562;28;20040;-55
2022/11/26 15:40:50;;;;;;;34.97;14.77;;;8.40;99.90;;;;;;5071243;28;20052;-55
2022/11/26 15:43:41;;;;;;;60.25;37.80;;;8.40;99.90;;;;;;5070497;28;20386;-57
2022/11/26 15:46:09;;;;;;;41.65;17.33;;;8.40;99.90;;;;;;5049569;28;20131;-52
2022/11/26 15:48:41;;;;;;;37.78;14.43;;;8.40;99.90;;;;;;5051553;28;20398;-53
2022/11/26 15:51:09;;;;;;;37.17;15.25;;;8.40;99.90;;;;;;5050753;28;20049;-54
2022/11/26 15:53:36;;;;;;;30.80;13.73;;;8.40;99.90;;;;;;5050448;28;20041;-55
2022/11/26 15:56:03;;;;;;;39.70;14.70;;;8.40;99.90;;;;;;5052158;28;20139;-57
2022/11/26 15:58:39;;;;;;;;;;;8.40;99.90;;;;;;5050811;28;20526;-54
2022/11/26 16:01:14;;;;;;;31.50;12.50;;;8.50;99.90;;;;;;5050146;28;19917;-52
2022/11/26 16:03:42;;;;;;;34.40;14.38;;;8.50;99.90;;;;;;5069951;28;20048;-54
2022/11/26 16:06:27;;;;;;;42.03;14.48;;;8.40;99.90;;;;;;5068652;28;20036;-53
2022/11/26 16:09:07;;;;;;;45.50;14.73;;;8.40;99.90;;;;;;5071036;28;20485;-53
2022/11/26 16:11:38;;;;;;;32.92;13.02;;;8.40;99.90;;;;;;5070732;28;20043;-55
2022/11/26 16:14:38;;;;;;;33.38;12.63;;;8.40;99.90;;;;;;5069419;28;20409;-57
2022/11/26 16:17:15;;;;;;;32.20;13.10;;;8.40;99.90;;;;;;5069008;28;20033;-56
2022/11/26 16:19:51;;;;;;;28.63;13.50;;;8.40;99.90;;;;;;5070636;28;20037;-58
2022/11/26 16:22:18;;;;;;;40.05;13.32;;;8.40;99.90;;;;;;5059411;28;20039;-57
2022/11/26 16:24:44;;;;;;;34.10;13.23;;;8.40;99.90;;;;;;5049565;28;20167;-54
2022/11/26 16:27:19;;;;;;;43.20;13.67;;;8.50;99.90;;;;;;5050730;28;20510;-57
2022/11/26 16:29:45;;;;;;;33.92;11.50;;;8.50;99.90;;;;;;5049240;28;20055;-55
2022/11/26 16:32:13;;;;;;;31.85;13.07;;;8.50;99.90;;;;;;5056696;28;20146;-59
2022/11/26 16:34:39;;;;;;;33.90;13.15;;;8.50;99.90;;;;;;5068318;28;20076;-59
2022/11/26 16:37:39;;;;;;;27.40;12.13;;;8.40;99.90;;;;;;5053917;28;20493;-57
2022/11/26 16:40:13;;;;;;;34.08;12.30;;;8.40;99.90;;;;;;5050153;28;20040;-60
2022/11/26 16:42:39;;;;;;;40.58;13.38;;;8.40;99.90;;;;;;5051108;28;20037;-58
2022/11/26 16:45:05;;;;;;;28.50;12.80;;;8.40;99.90;;;;;;5048338;28;20114;-57
2022/11/26 16:47:36;;;;;;;29.08;11.65;;;8.40;99.90;;;;;;5050040;28;20524;-55
2022/11/26 16:50:02;;;;;;;31.38;11.95;;;8.30;99.90;;;;;;5049869;28;20041;-56
2022/11/26 16:52:28;;;;;;;32.17;11.57;;;8.30;99.90;;;;;;5062319;28;20405;-59
2022/11/26 16:54:53;;;;;;;28.75;11.70;;;8.30;99.90;;;;;;5049547;28;20037;-59
2022/11/26 16:57:22;;;;;;;34.53;13.68;;;8.30;99.90;;;;;;5050172;28;20034;-57
2022/11/26 16:59:58;;;;;;;37.55;13.07;;;8.30;99.90;;;;;;5049783;28;20047;-58
2022/11/26 17:02:23;;;;;;;40.00;12.30;;;8.20;99.90;;;;;;5050376;28;20060;-60
2022/11/26 17:04:49;;;;;;;37.67;13.17;;;8.20;99.90;;;;;;5061183;28;20129;-57
2022/11/26 17:07:28;;;;;;;27.25;10.68;;;8.20;99.90;;;;;;5070298;28;20036;-57
2022/11/26 17:09:55;;;;;;;32.58;11.63;;;8.20;99.90;;;;;;5070105;28;20072;-59
2022/11/26 17:12:23;;;;;;;26.92;12.00;;;8.10;99.90;;;;;;5069347;28;20428;-59
2022/11/26 17:14:48;;;;;;;35.60;10.75;;;8.10;99.90;;;;;;5065374;28;20044;-59
2022/11/26 17:17:19;;;;;;;27.37;12.33;;;8.10;99.90;;;;;;5069012;28;20166;-57
2022/11/26 17:19:44;;;;;;;26.08;10.82;;;8.10;99.90;;;;;;5069972;28;20052;-59
2022/11/26 17:22:11;;;;;;;39.90;12.20;;;8.10;99.90;;;;;;5069648;28;20045;-57
2022/11/26 17:24:38;;;;;;;31.13;10.00;;;8.10;99.90;;;;;;5065914;28;20040;-55
2022/11/26 17:27:10;;;;;;;35.92;12.20;;;8.10;99.90;;;;;;5049751;28;20458;-54
2022/11/26 17:29:39;;;;;;;37.45;11.75;;;8.10;99.90;;;;;;5049483;28;20049;-55
2022/11/26 17:32:05;;;;;;;37.08;12.15;;;8.00;99.90;;;;;;5049452;28;20044;-57
2022/11/26 17:34:30;;;;;;;32.22;11.20;;;8.00;99.90;;;;;;5048171;28;20044;-57
2022/11/26 17:36:59;;;;;;;29.50;11.63;;;8.00;99.90;;;;;;5050323;28;20032;-54
2022/11/26 17:39:26;;;;;;;43.78;11.35;;;8.00;99.90;;;;;;5049145;28;20045;-56
2022/11/26 17:41:52;;;;;;;28.17;11.50;;;8.00;99.90;;;;;;5057847;28;20098;-57
2022/11/26 17:44:18;;;;;;;28.98;10.75;;;8.00;99.90;;;;;;5063664;28;20033;-56
2022/11/26 17:46:44;;;;;;;27.00;10.93;;;7.90;99.90;;;;;;5050493;28;20473;-57
2022/11/26 17:49:09;;;;;;;29.25;11.02;;;7.90;99.90;;;;;;5048929;28;20048;-55
2022/11/26 17:51:35;;;;;;;29.93;10.93;;;7.90;99.90;;;;;;5049405;28;20087;-56
2022/11/26 17:54:01;;;;;;;40.40;12.05;;;7.90;99.90;;;;;;5047751;28;20103;-53
2022/11/26 17:56:27;;;;;;;37.23;12.13;;;7.90;99.90;;;;;;5050244;28;20037;-54
2022/11/26 17:58:53;;;;;;;26.40;9.57;;;7.90;99.90;;;;;;5049125;28;20044;-57
2022/11/26 18:01:18;;;;;;;28.60;10.93;;;7.90;99.90;;;;;;5049129;28;20036;-54
2022/11/26 18:03:44;;;;;;;44.83;11.57;;;7.90;99.90;;;;;;5048527;28;20685;-56
2022/11/26 18:06:17;;;;;;;28.73;10.18;;;7.90;99.90;;;;;;5064455;28;20127;-58
2022/11/26 18:08:43;;;;;;;30.23;10.00;;;7.80;99.90;;;;;;5069272;28;20094;-54
2022/11/26 18:11:11;;;;;;;34.63;10.50;;;7.90;99.90;;;;;;5068053;28;20119;-53
2022/11/26 18:13:37;;;;;;;33.33;10.52;;;7.90;99.90;;;;;;5065004;28;20036;-51
2022/11/26 18:16:02;;;;;;;34.33;11.37;;;7.90;99.90;;;;;;5068312;28;20410;-55
2022/11/26 18:18:28;;;;;;;35.05;8.38;;;7.90;99.90;;;;;;5054887;28;20120;-55
2022/11/26 18:20:54;;;;;;;23.45;8.02;;;7.90;99.90;;;;;;5049631;28;20120;-55
2022/11/26 18:23:20;;;;;;;35.60;10.32;;;7.90;99.90;;;;;;5050869;28;20389;-54
2022/11/26 18:25:45;;;;;;;49.00;10.53;;;7.90;99.90;;;;;;5050922;28;20077;-53
2022/11/26 18:28:15;;;;;;;30.10;8.83;;;7.90;99.90;;;;;;5054016;28;20059;-56
2022/11/26 18:30:42;;;;;;;34.63;9.48;;;8.00;99.90;;;;;;5052838;28;20116;-58
2022/11/26 18:33:11;;;;;;;25.88;8.80;;;8.00;99.90;;;;;;5051746;28;20505;-53
2022/11/26 18:35:39;;;;;;;35.97;9.35;;;7.90;99.90;;;;;;5051747;28;20120;-55
2022/11/26 18:38:08;;;;;;;27.75;8.82;;;8.00;99.90;;;;;;5052589;28;20111;-53
2022/11/26 18:40:34;;;;;;;22.55;7.50;;;7.90;99.90;;;;;;5072349;28;20119;-55
2022/11/26 18:42:59;;;;;;;32.15;8.90;;;8.00;99.90;;;;;;5070966;28;20164;-56
2022/11/26 18:45:25;;;;;;;30.67;8.77;;;8.00;99.90;;;;;;5072052;28;20039;-58
2022/11/26 18:47:50;;;;;;;34.00;7.67;;;8.00;99.90;;;;;;5071268;28;20082;-56
2022/11/26 18:50:16;;;;;;;28.70;8.00;;;8.00;99.90;;;;;;5057650;28;20045;-55
2022/11/26 18:52:42;;;;;;;32.27;8.20;;;8.00;99.90;;;;;;5052202;28;20044;-57
2022/11/26 18:55:08;;;;;;;25.73;7.13;;;7.90;99.90;;;;;;5032760;28;20041;-54
2022/11/26 18:57:34;;;;;;;;;;;7.90;99.90;;;;;;5052624;28;20048;-58
2022/11/26 18:59:59;;;;;;;25.25;8.05;;;7.90;99.90;;;;;;5053396;28;19921;-57
2022/11/26 19:02:25;;;;;;;35.97;8.50;;;8.00;99.90;;;;;;5058253;28;20072;-56
2022/11/26 19:04:51;;;;;;;21.77;8.07;;;8.00;99.90;;;;;;5070186;28;20072;-55
2022/11/26 19:07:16;;;;;;;22.85;7.90;;;8.00;99.90;;;;;;5063580;28;20087;-58
2022/11/26 19:09:42;;;;;;;37.40;9.33;;;8.00;99.90;;;;;;5069644;28;20510;-56
2022/11/26 19:12:07;;;;;;;37.57;8.60;;;8.00;99.90;;;;;;5070608;28;20047;-58
2022/11/26 19:14:33;;;;;;;29.63;7.63;;;8.00;99.90;;;;;;5069957;28;20048;-56
2022/11/26 19:16:59;;;;;;;24.37;7.37;;;8.00;99.90;;;;;;5070540;28;20370;-56
2022/11/26 19:19:26;;;;;;;27.83;8.13;;;8.00;99.90;;;;;;5064725;28;20090;-57
2022/11/26 19:21:52;;;;;;;30.35;7.63;;;8.00;99.90;;;;;;5061426;28;20060;-59
2022/11/26 19:24:18;;;;;;;27.65;6.85;;;8.00;99.90;;;;;;5050525;28;20052;-59
2022/11/26 19:26:43;;;;;;;19.70;8.43;;;8.00;99.90;;;;;;5051687;28;20045;-59
2022/11/26 19:29:11;;;;;;;22.40;7.73;;;8.00;99.90;;;;;;5053768;28;20486;-54
2022/11/26 19:31:38;;;;;;;28.90;8.27;;;8.00;99.90;;;;;;5053918;28;20036;-58
2022/11/26 19:34:07;;;;;;;18.65;6.55;;;8.00;99.90;;;;;;5063954;28;20513;-56
2022/11/26 19:36:33;;;;;;;28.42;6.85;;;8.00;99.90;;;;;;5059199;28;20044;-57
2022/11/26 19:39:00;;;;;;;20.27;6.13;;;8.00;99.90;;;;;;5059249;28;20036;-57
2022/11/26 19:41:27;;;;;;;28.67;7.95;;;8.00;99.90;;;;;;5068240;28;20409;-57
2022/11/26 19:43:53;;;;;;;17.60;7.03;;;8.00;99.90;;;;;;5065547;28;20497;-57
2022/11/26 19:46:20;;;;;;;24.05;7.25;;;8.00;99.90;;;;;;5068425;28;20055;-59
2022/11/26 19:48:48;;;;;;;24.70;7.07;;;8.00;99.90;;;;;;5070797;28;20147;-59
2022/11/26 19:51:16;;;;;;;21.88;7.63;;;8.00;99.90;;;;;;5057556;28;20093;-55
2022/11/26 19:53:42;;;;;;;22.98;6.82;;;8.00;99.90;;;;;;5068412;28;20037;-56
2022/11/26 19:56:14;;;;;;;23.30;7.63;;;8.00;99.90;;;;;;5057648;28;20040;-54
2022/11/26 19:58:40;;;;;;;30.52;6.97;;;8.00;99.90;;;;;;5070927;28;20063;-54
2022/11/26 20:01:08;;;;;;;23.10;7.90;;;7.90;99.90;;;;;;5070719;28;20560;-54
2022/11/26 20:03:35;;;;;;;28.85;7.85;;;7.90;99.90;;;;;;5065467;28;20044;-57
2022/11/26 20:06:06;;;;;;;25.33;7.22;;;7.90;99.90;;;;;;5066904;28;20119;-56
2022/11/26 20:08:37;;;;;;;33.90;7.72;;;7.90;99.90;;;;;;5070870;28;20048;-56
2022/11/26 20:11:04;;;;;;;25.17;7.13;;;7.90;99.90;;;;;;5071384;28;20079;-54
2022/11/26 20:13:31;;;;;;;35.80;7.43;;;7.90;99.90;;;;;;5063576;28;20459;-57
2022/11/26 20:15:56;;;;;;;20.55;6.07;;;8.00;99.90;;;;;;5063700;28;20402;-56
2022/11/26 20:18:22;;;;;;;20.70;6.30;;;8.00;99.90;;;;;;5060313;28;20028;-59
2022/11/26 20:21:02;;;;;;;20.53;6.37;;;7.90;99.90;;;;;;5059646;28;20045;-58
2022/11/26 20:23:27;;;;;;;24.10;6.55;;;8.00;99.90;;;;;;5047559;28;20170;-59
2022/11/26 20:25:54;;;;;;;32.33;6.87;;;8.00;99.90;;;;;;5049766;28;20144;-59
2022/11/26 20:28:20;;;;;;;34.15;7.55;;;8.00;99.90;;;;;;5050221;28;20040;-56
2022/11/26 20:30:46;;;;;;;19.23;7.05;;;8.00;99.90;;;;;;5053016;28;20311;-58
2022/11/26 20:33:13;;;;;;;20.60;6.10;;;8.00;99.90;;;;;;5051770;28;20048;-56
2022/11/26 20:35:40;;;;;;;21.02;6.10;;;8.00;99.90;;;;;;5049395;28;20282;-58
2022/11/26 20:38:06;;;;;;;23.75;5.90;;;8.00;99.90;;;;;;5051650;28;20044;-59
2022/11/26 20:40:32;;;;;;;14.30;5.97;;;8.00;99.90;;;;;;5056805;28;20029;-56
2022/11/26 20:42:58;;;;;;;18.23;5.70;;;8.00;99.90;;;;;;5068976;28;20039;-56
2022/11/26 20:45:23;;;;;;;23.63;6.17;;;8.00;99.90;;;;;;5068052;28;20314;-59
2022/11/26 20:47:49;;;;;;;16.47;6.17;;;8.10;99.90;;;;;;5070197;28;20128;-59
2022/11/26 20:50:14;;;;;;;16.00;5.60;;;8.10;99.90;;;;;;5068327;28;20040;-59
2022/11/26 20:52:40;;;;;;;25.77;6.77;;;8.10;99.90;;;;;;5067882;28;20044;-59
2022/11/26 20:55:07;;;;;;;25.33;6.43;;;8.10;99.90;;;;;;5067317;28;20044;-57
2022/11/26 20:57:34;;;;;;;26.92;7.38;;;8.10;99.90;;;;;;5069281;28;20275;-57
2022/11/26 21:00:02;;;;;;;23.35;6.80;;;8.10;99.90;;;;;;5069364;28;20543;-56
2022/11/26 21:02:28;;;;;;;25.10;6.20;;;8.10;99.90;;;;;;5068290;28;20401;-59
2022/11/26 21:04:53;;;;;;;16.20;5.95;;;8.10;99.90;;;;;;5068556;28;20044;-56
2022/11/26 21:07:19;;;;;;;27.23;7.20;;;8.10;99.90;;;;;;5056263;28;20045;-57
2022/11/26 21:09:46;;;;;;;18.40;6.50;;;8.10;99.90;;;;;;5069160;28;20036;-57
2022/11/26 21:12:12;;;;;;;19.42;6.18;;;8.10;99.90;;;;;;5066787;28;20044;-57
2022/11/26 21:14:38;;;;;;;26.02;6.38;;;8.10;99.90;;;;;;5067943;28;20577;-56
2022/11/26 21:17:03;;;;;;;17.23;6.53;;;8.10;99.90;;;;;;5055066;28;20039;-58
2022/11/26 21:19:29;;;;;;;20.67;5.70;;;8.10;99.90;;;;;;5067241;28;20040;-59
2022/11/26 21:21:54;;;;;;;22.20;6.53;;;8.10;99.90;;;;;;5069598;28;20032;-58
2022/11/26 21:24:20;;;;;;;27.97;6.53;;;8.10;99.90;;;;;;5067651;28;20060;-55
2022/11/26 21:26:45;;;;;;;19.23;7.13;;;8.10;99.90;;;;;;5064636;28;20044;-57
2022/11/26 21:29:11;;;;;;;17.60;5.93;;;8.10;99.90;;;;;;5054814;28;20049;-57
2022/11/26 21:31:37;;;;;;;17.00;5.82;;;8.10;99.90;;;;;;5062722;28;20083;-58
2022/11/26 21:34:05;;;;;;;28.53;7.13;;;8.10;99.90;;;;;;5051211;28;20055;-56
2022/11/26 21:36:33;;;;;;;15.50;5.40;;;8.10;99.90;;;;;;5035214;28;20039;-59
2022/11/26 21:38:59;;;;;;;13.07;5.63;;;8.10;99.90;;;;;;5060374;28;20115;-57
2022/11/26 21:41:27;;;;;;;20.83;6.43;;;8.10;99.90;;;;;;5066795;28;20171;-57
2022/11/26 21:43:53;;;;;;;25.48;6.15;;;8.10;99.90;;;;;;5046390;28;20279;-58
2022/11/26 21:46:24;;;;;;;12.65;5.30;;;8.10;99.90;;;;;;5048079;28;20090;-59
2022/11/26 21:48:54;;;;;;;25.95;6.95;;;8.10;99.90;;;;;;5049449;28;20057;-57
2022/11/26 21:51:23;;;;;;;17.35;7.25;;;8.00;99.90;;;;;;5048096;28;20098;-60
2022/11/26 21:53:49;;;;;;;16.90;6.13;;;8.10;99.90;;;;;;5051669;28;20037;-58
2022/11/26 21:56:17;;;;;;;24.63;7.20;;;8.10;99.90;;;;;;5055887;28;20059;-58
2022/11/26 21:58:43;;;;;;;20.73;6.15;;;8.10;99.90;;;;;;5069049;28;20037;-60
2022/11/26 22:01:20;;;;;;;18.70;6.40;;;8.00;99.90;;;;;;5068395;28;20283;-58
2022/11/26 22:03:48;;;;;;;18.92;6.15;;;8.00;99.90;;;;;;5068938;28;20684;-57
2022/11/26 22:06:15;;;;;;;15.15;6.00;;;8.00;99.90;;;;;;5062388;28;20036;-59
2022/11/26 22:08:40;;;;;;;;;;;8.00;99.90;;;;;;5071863;28;20119;-56
2022/11/26 22:11:14;;;;;;;19.40;6.10;;;8.00;99.90;;;;;;5073009;28;20003;-56
2022/11/26 22:13:40;;;;;;;16.83;6.70;;;8.00;99.90;;;;;;5070526;28;20055;-57
2022/11/26 22:16:07;;;;;;;26.85;8.25;;;8.00;99.90;;;;;;5070604;28;20041;-59
2022/11/26 22:18:40;;;;;;;17.48;5.82;;;8.00;99.90;;;;;;5063525;28;20036;-56
2022/11/26 22:21:09;;;;;;;18.23;5.88;;;8.00;99.90;;;;;;5071054;28;20116;-54
2022/11/26 22:23:35;;;;;;;21.52;6.15;;;7.90;99.90;;;;;;5055654;28;20052;-56
2022/11/26 22:26:00;;;;;;;24.27;6.50;;;8.00;99.90;;;;;;5066574;28;20605;-57
2022/11/26 22:28:27;;;;;;;18.23;5.63;;;7.90;99.90;;;;;;5072485;28;20412;-56
2022/11/26 22:30:53;;;;;;;16.60;5.82;;;7.90;99.90;;;;;;5061301;28;20045;-59
2022/11/26 22:33:18;;;;;;;17.03;7.03;;;7.90;99.90;;;;;;5071381;28;20040;-57
2022/11/26 22:35:44;;;;;;;16.43;5.20;;;7.90;99.90;;;;;;5057203;28;20070;-57
2022/11/26 22:38:10;;;;;;;25.30;6.03;;;7.90;99.90;;;;;;5062856;28;20283;-54
2022/11/26 22:40:35;;;;;;;17.73;5.93;;;7.90;99.90;;;;;;5066160;28;20028;-57
2022/11/26 22:43:01;;;;;;;22.52;7.50;;;7.80;99.90;;;;;;5070338;28;20093;-57
2022/11/26 22:45:27;;;;;;;18.17;5.70;;;7.80;99.90;;;;;;5069263;28;20044;-60
2022/11/26 22:47:53;;;;;;;21.70;6.78;;;7.80;99.90;;;;;;5070287;28;20049;-56
2022/11/26 22:50:19;;;;;;;21.97;6.10;;;7.70;99.90;;;;;;5068394;28;20490;-55
2022/11/26 22:52:44;;;;;;;20.40;6.28;;;7.70;99.90;;;;;;5054445;28;20414;-55
2022/11/26 22:55:10;;;;;;;24.10;7.43;;;7.70;99.90;;;;;;5058151;28;20036;-58
2022/11/26 22:57:36;;;;;;;18.40;6.38;;;7.70;99.90;;;;;;5070664;28;20028;-59
2022/11/26 23:00:07;;;;;;;25.13;7.17;;;7.60;99.90;;;;;;5058895;28;20043;-57
2022/11/26 23:02:32;;;;;;;23.80;7.15;;;7.60;99.90;;;;;;5054797;28;20041;-58
2022/11/26 23:04:58;;;;;;;24.23;6.30;;;7.60;99.90;;;;;;5056649;28;20044;-56
2022/11/26 23:07:23;;;;;;;23.47;6.57;;;7.60;99.90;;;;;;5070592;28;20044;-57
2022/11/26 23:09:49;;;;;;;17.63;5.73;;;7.50;99.90;;;;;;5057792;28;20044;-57
2022/11/26 23:12:14;;;;;;;20.83;6.83;;;7.50;99.90;;;;;;5058491;28;20111;-58
2022/11/26 23:14:40;;;;;;;17.17;5.70;;;7.50;99.90;;;;;;5063996;28;20383;-57
2022/11/26 23:17:05;;;;;;;18.37;5.83;;;7.50;99.90;;;;;;5072126;28;20106;-58
2022/11/26 23:19:31;;;;;;;15.10;5.27;;;7.40;99.90;;;;;;5070573;28;20036;-60
2022/11/26 23:21:56;;;;;;;20.27;5.80;;;7.40;99.90;;;;;;5060476;28;20399;-55
2022/11/26 23:24:22;;;;;;;15.23;6.60;;;7.40;99.90;;;;;;5051450;28;20532;-59
2022/11/26 23:26:47;;;;;;;21.87;6.53;;;7.40;99.90;;;;;;5071473;28;20098;-60
2022/11/26 23:29:13;;;;;;;21.93;6.53;;;7.40;99.90;;;;;;5061516;28;20037;-60
2022/11/26 23:31:41;;;;;;;18.35;6.65;;;7.30;99.90;;;;;;5092331;28;20599;-57
2022/11/26 23:34:08;;;;;;;17.35;6.65;;;7.30;99.90;;;;;;5064761;28;20120;-58
2022/11/26 23:36:35;;;;;;;22.00;6.85;;;7.30;99.90;;;;;;5053394;28;20402;-59
2022/11/26 23:39:03;;;;;;;23.02;6.68;;;7.30;99.90;;;;;;5069683;28;20033;-58
2022/11/26 23:41:29;;;;;;;20.10;6.03;;;7.30;99.90;;;;;;5058022;28;20048;-58
2022/11/26 23:43:55;;;;;;;18.90;5.37;;;7.20;99.90;;;;;;5055533;28;20029;-59
2022/11/26 23:46:26;;;;;;;16.25;6.47;;;7.20;99.90;;;;;;5071407;28;20108;-56
2022/11/26 23:48:53;;;;;;;25.25;6.10;;;7.20;99.90;;;;;;5069736;28;20028;-60
2022/11/26 23:51:25;;;;;;;19.35;6.95;;;7.20;99.90;;;;;;5069497;28;20040;-60
2022/11/26 23:53:51;;;;;;;14.82;5.43;;;7.20;99.90;;;;;;5051245;28;20083;-59
2022/11/26 23:56:18;;;;;;;;;;;7.20;99.90;;;;;;5050599;28;20510;-60
2022/11/26 23:58:48;;;;;;;27.15;8.88;;;7.20;99.90;;;;;;5051955;28;19921;-60
